sensor_id;sensor_type;location;lat;lon;timestamp;temperature;humidity
70734;DHT22;58320;48.804;9.252;2023-04-01T00:00:27;8.70;79.70
70734;DHT22;58320;48.804;9.252;2023-04-01T00:02:53;8.60;80.30
70734;DHT22;58320;48.804;9.252;2023-04-01T00:05:19;8.50;80.70
70734;DHT22;58320;48.804;9.252;2023-04-01T00:07:45;8.50;81.10
70734;DHT22;58320;48.804;9.252;2023-04-01T00:10:12;8.50;81.60
70734;DHT22;58320;48.804;9.252;2023-04-01T00:12:39;8.50;81.90
70734;DHT22;58320;48.804;9.252;2023-04-01T00:15:07;8.50;81.90
70734;DHT22;58320;48.804;9.252;2023-04-01T00:17:34;8.50;81.70
70734;DHT22;58320;48.804;9.252;2023-04-01T00:20:00;8.60;81.90
70734;DHT22;58320;48.804;9.252;2023-04-01T00:22:26;8.60;81.90
70734;DHT22;58320;48.804;9.252;2023-04-01T00:24:53;8.60;82.00
70734;DHT22;58320;48.804;9.252;2023-04-01T00:27:19;8.60;82.00
70734;DHT22;58320;48.804;9.252;2023-04-01T00:29:46;8.60;81.70
70734;DHT22;58320;48.804;9.252;2023-04-01T00:32:13;8.60;81.20
70734;DHT22;58320;48.804;9.252;2023-04-01T00:34:40;8.60;81.20
70734;DHT22;58320;48.804;9.252;2023-04-01T00:37:07;8.60;81.20
70734;DHT22;58320;48.804;9.252;2023-04-01T00:39:34;8.60;81.30
70734;DHT22;58320;48.804;9.252;2023-04-01T00:42:02;8.60;80.80
70734;DHT22;58320;48.804;9.252;2023-04-01T00:44:30;8.60;81.00
70734;DHT22;58320;48.804;9.252;2023-04-01T00:46:58;8.60;81.00
70734;DHT22;58320;48.804;9.252;2023-04-01T00:49:39;8.60;81.10
70734;DHT22;58320;48.804;9.252;2023-04-01T00:52:08;8.60;80.90
70734;DHT22;58320;48.804;9.252;2023-04-01T00:54:36;8.60;80.50
70734;DHT22;58320;48.804;9.252;2023-04-01T00:57:10;8.80;80.40
70734;DHT22;58320;48.804;9.252;2023-04-01T00:59:42;8.80;80.70
70734;DHT22;58320;48.804;9.252;2023-04-01T01:02:11;8.70;81.20
70734;DHT22;58320;48.804;9.252;2023-04-01T01:04:38;8.70;81.50
70734;DHT22;58320;48.804;9.252;2023-04-01T01:07:27;8.70;80.70
70734;DHT22;58320;48.804;9.252;2023-04-01T01:15:36;8.90;80.60
70734;DHT22;58320;48.804;9.252;2023-04-01T01:27:06;8.70;81.40
70734;DHT22;58320;48.804;9.252;2023-04-01T01:38:00;8.90;79.90
70734;DHT22;58320;48.804;9.252;2023-04-01T01:40:27;8.90;80.50
70734;DHT22;58320;48.804;9.252;2023-04-01T01:42:58;8.90;80.60
70734;DHT22;58320;48.804;9.252;2023-04-01T01:45:26;8.90;81.60
70734;DHT22;58320;48.804;9.252;2023-04-01T01:47:53;8.80;82.00
70734;DHT22;58320;48.804;9.252;2023-04-01T01:50:21;8.80;83.70
70734;DHT22;58320;48.804;9.252;2023-04-01T01:52:48;8.70;83.90
70734;DHT22;58320;48.804;9.252;2023-04-01T01:55:46;8.50;85.60
70734;DHT22;58320;48.804;9.252;2023-04-01T01:58:32;8.40;86.40
70734;DHT22;58320;48.804;9.252;2023-04-01T02:01:07;8.30;89.70
70734;DHT22;58320;48.804;9.252;2023-04-01T02:03:39;8.10;92.40
70734;DHT22;58320;48.804;9.252;2023-04-01T02:06:08;8.00;92.70
70734;DHT22;58320;48.804;9.252;2023-04-01T02:11:47;7.80;94.30
70734;DHT22;58320;48.804;9.252;2023-04-01T02:14:25;7.80;94.70
70734;DHT22;58320;48.804;9.252;2023-04-01T02:16:55;7.80;93.90
70734;DHT22;58320;48.804;9.252;2023-04-01T02:19:27;7.80;93.30
70734;DHT22;58320;48.804;9.252;2023-04-01T02:22:03;8.00;90.40
70734;DHT22;58320;48.804;9.252;2023-04-01T02:24:31;8.10;88.90
70734;DHT22;58320;48.804;9.252;2023-04-01T02:26:59;8.10;90.10
70734;DHT22;58320;48.804;9.252;2023-04-01T02:29:25;8.10;90.30
70734;DHT22;58320;48.804;9.252;2023-04-01T02:31:52;8.00;92.30
70734;DHT22;58320;48.804;9.252;2023-04-01T02:34:19;7.90;94.30
70734;DHT22;58320;48.804;9.252;2023-04-01T02:36:48;7.90;95.70
70734;DHT22;58320;48.804;9.252;2023-04-01T02:39:15;7.80;95.20
70734;DHT22;58320;48.804;9.252;2023-04-01T02:41:42;7.80;94.50
70734;DHT22;58320;48.804;9.252;2023-04-01T02:44:11;7.70;93.40
70734;DHT22;58320;48.804;9.252;2023-04-01T02:46:39;7.70;93.90
70734;DHT22;58320;48.804;9.252;2023-04-01T02:49:05;7.60;94.00
70734;DHT22;58320;48.804;9.252;2023-04-01T02:51:31;7.70;92.20
70734;DHT22;58320;48.804;9.252;2023-04-01T02:53:58;7.70;89.90
70734;DHT22;58320;48.804;9.252;2023-04-01T02:56:23;7.80;87.80
70734;DHT22;58320;48.804;9.252;2023-04-01T02:58:49;7.90;86.90
70734;DHT22;58320;48.804;9.252;2023-04-01T03:01:15;7.80;87.20
70734;DHT22;58320;48.804;9.252;2023-04-01T03:03:41;7.80;87.00
70734;DHT22;58320;48.804;9.252;2023-04-01T03:06:09;7.80;87.20
70734;DHT22;58320;48.804;9.252;2023-04-01T03:08:36;7.80;87.30
70734;DHT22;58320;48.804;9.252;2023-04-01T03:11:02;7.80;86.00
70734;DHT22;58320;48.804;9.252;2023-04-01T03:13:28;7.80;86.90
70734;DHT22;58320;48.804;9.252;2023-04-01T03:15:54;7.90;85.00
70734;DHT22;58320;48.804;9.252;2023-04-01T03:18:20;7.90;85.00
70734;DHT22;58320;48.804;9.252;2023-04-01T03:20:45;7.90;85.20
70734;DHT22;58320;48.804;9.252;2023-04-01T03:23:11;7.90;84.50
70734;DHT22;58320;48.804;9.252;2023-04-01T03:25:37;8.00;83.40
70734;DHT22;58320;48.804;9.252;2023-04-01T03:28:03;7.90;83.60
70734;DHT22;58320;48.804;9.252;2023-04-01T03:30:29;7.90;83.60
70734;DHT22;58320;48.804;9.252;2023-04-01T03:32:57;7.80;84.30
70734;DHT22;58320;48.804;9.252;2023-04-01T03:35:23;7.80;83.80
70734;DHT22;58320;48.804;9.252;2023-04-01T03:37:51;7.80;83.80
70734;DHT22;58320;48.804;9.252;2023-04-01T03:40:17;7.80;83.90
70734;DHT22;58320;48.804;9.252;2023-04-01T03:42:43;7.80;83.30
70734;DHT22;58320;48.804;9.252;2023-04-01T03:45:09;7.90;82.80
70734;DHT22;58320;48.804;9.252;2023-04-01T03:47:37;7.90;82.20
70734;DHT22;58320;48.804;9.252;2023-04-01T03:50:04;8.00;81.90
70734;DHT22;58320;48.804;9.252;2023-04-01T03:52:30;8.00;81.50
70734;DHT22;58320;48.804;9.252;2023-04-01T03:54:56;8.00;80.80
70734;DHT22;58320;48.804;9.252;2023-04-01T03:57:22;8.10;80.90
70734;DHT22;58320;48.804;9.252;2023-04-01T03:59:48;8.10;81.10
70734;DHT22;58320;48.804;9.252;2023-04-01T04:02:13;8.00;81.00
70734;DHT22;58320;48.804;9.252;2023-04-01T04:04:39;8.00;80.30
70734;DHT22;58320;48.804;9.252;2023-04-01T04:07:06;8.00;80.60
70734;DHT22;58320;48.804;9.252;2023-04-01T04:09:32;7.90;80.70
70734;DHT22;58320;48.804;9.252;2023-04-01T04:11:58;7.90;80.10
70734;DHT22;58320;48.804;9.252;2023-04-01T04:14:25;7.90;79.40
70734;DHT22;58320;48.804;9.252;2023-04-01T04:16:51;8.00;79.20
70734;DHT22;58320;48.804;9.252;2023-04-01T04:19:17;8.00;79.20
70734;DHT22;58320;48.804;9.252;2023-04-01T04:21:43;8.00;79.50
70734;DHT22;58320;48.804;9.252;2023-04-01T04:24:09;8.00;79.40
70734;DHT22;58320;48.804;9.252;2023-04-01T04:26:35;8.00;79.00
70734;DHT22;58320;48.804;9.252;2023-04-01T04:29:01;8.00;78.10
70734;DHT22;58320;48.804;9.252;2023-04-01T04:31:27;8.00;78.60
70734;DHT22;58320;48.804;9.252;2023-04-01T04:33:53;7.90;78.00
70734;DHT22;58320;48.804;9.252;2023-04-01T04:36:20;7.90;79.10
70734;DHT22;58320;48.804;9.252;2023-04-01T04:38:46;7.80;79.30
70734;DHT22;58320;48.804;9.252;2023-04-01T04:41:17;7.70;80.10
70734;DHT22;58320;48.804;9.252;2023-04-01T04:43:52;7.60;80.80
70734;DHT22;58320;48.804;9.252;2023-04-01T04:46:21;7.50;81.10
70734;DHT22;58320;48.804;9.252;2023-04-01T04:48:47;7.50;81.60
70734;DHT22;58320;48.804;9.252;2023-04-01T04:51:18;7.60;80.90
70734;DHT22;58320;48.804;9.252;2023-04-01T04:53:45;7.60;80.80
70734;DHT22;58320;48.804;9.252;2023-04-01T04:56:11;7.60;80.50
70734;DHT22;58320;48.804;9.252;2023-04-01T04:58:38;7.60;81.00
70734;DHT22;58320;48.804;9.252;2023-04-01T05:01:10;7.60;81.30
70734;DHT22;58320;48.804;9.252;2023-04-01T05:03:37;7.70;81.40
70734;DHT22;58320;48.804;9.252;2023-04-01T05:06:03;7.60;81.70
70734;DHT22;58320;48.804;9.252;2023-04-01T05:08:30;7.60;81.90
70734;DHT22;58320;48.804;9.252;2023-04-01T05:10:56;7.60;82.10
70734;DHT22;58320;48.804;9.252;2023-04-01T05:13:22;7.60;82.40
70734;DHT22;58320;48.804;9.252;2023-04-01T05:15:47;7.60;82.30
70734;DHT22;58320;48.804;9.252;2023-04-01T05:18:13;7.60;82.30
70734;DHT22;58320;48.804;9.252;2023-04-01T05:20:39;7.60;82.80
70734;DHT22;58320;48.804;9.252;2023-04-01T05:23:05;7.60;82.40
70734;DHT22;58320;48.804;9.252;2023-04-01T05:25:30;7.60;82.50
70734;DHT22;58320;48.804;9.252;2023-04-01T05:27:56;7.60;82.20
70734;DHT22;58320;48.804;9.252;2023-04-01T05:30:22;7.60;82.30
70734;DHT22;58320;48.804;9.252;2023-04-01T05:32:47;7.70;82.20
70734;DHT22;58320;48.804;9.252;2023-04-01T05:35:13;7.70;81.80
70734;DHT22;58320;48.804;9.252;2023-04-01T05:37:39;7.80;81.70
70734;DHT22;58320;48.804;9.252;2023-04-01T05:40:06;7.90;81.00
70734;DHT22;58320;48.804;9.252;2023-04-01T05:42:32;8.00;80.80
70734;DHT22;58320;48.804;9.252;2023-04-01T05:44:58;8.10;80.20
70734;DHT22;58320;48.804;9.252;2023-04-01T05:47:24;8.20;79.40
70734;DHT22;58320;48.804;9.252;2023-04-01T05:49:49;8.30;78.90
70734;DHT22;58320;48.804;9.252;2023-04-01T05:52:15;8.30;78.60
70734;DHT22;58320;48.804;9.252;2023-04-01T05:54:41;8.30;78.50
70734;DHT22;58320;48.804;9.252;2023-04-01T05:57:07;8.40;77.40
70734;DHT22;58320;48.804;9.252;2023-04-01T05:59:32;8.50;76.50
70734;DHT22;58320;48.804;9.252;2023-04-01T06:02:00;8.60;76.50
70734;DHT22;58320;48.804;9.252;2023-04-01T06:04:31;8.60;76.20
70734;DHT22;58320;48.804;9.252;2023-04-01T06:07:00;8.70;75.70
70734;DHT22;58320;48.804;9.252;2023-04-01T06:09:29;8.80;75.90
70734;DHT22;58320;48.804;9.252;2023-04-01T06:14:55;8.90;74.70
70734;DHT22;58320;48.804;9.252;2023-04-01T06:20:39;9.00;74.30
70734;DHT22;58320;48.804;9.252;2023-04-01T06:23:13;9.10;73.70
70734;DHT22;58320;48.804;9.252;2023-04-01T06:26:11;9.20;72.70
70734;DHT22;58320;48.804;9.252;2023-04-01T06:28:50;9.30;72.90
70734;DHT22;58320;48.804;9.252;2023-04-01T06:40:51;9.60;71.30
70734;DHT22;58320;48.804;9.252;2023-04-01T06:52:38;9.70;70.10
70734;DHT22;58320;48.804;9.252;2023-04-01T06:55:47;9.60;69.80
70734;DHT22;58320;48.804;9.252;2023-04-01T06:58:45;9.70;70.40
70734;DHT22;58320;48.804;9.252;2023-04-01T07:01:22;9.70;70.50
70734;DHT22;58320;48.804;9.252;2023-04-01T07:07:00;9.80;70.20
70734;DHT22;58320;48.804;9.252;2023-04-01T07:09:34;9.80;69.70
70734;DHT22;58320;48.804;9.252;2023-04-01T07:12:15;9.90;70.20
70734;DHT22;58320;48.804;9.252;2023-04-01T07:14:48;9.90;69.80
70734;DHT22;58320;48.804;9.252;2023-04-01T07:17:19;9.90;70.10
70734;DHT22;58320;48.804;9.252;2023-04-01T07:19:53;10.00;69.90
70734;DHT22;58320;48.804;9.252;2023-04-01T07:22:31;9.90;69.80
70734;DHT22;58320;48.804;9.252;2023-04-01T07:25:11;9.90;70.10
70734;DHT22;58320;48.804;9.252;2023-04-01T07:27:42;9.90;70.10
70734;DHT22;58320;48.804;9.252;2023-04-01T07:30:19;9.90;70.60
70734;DHT22;58320;48.804;9.252;2023-04-01T07:35:57;9.80;71.30
70734;DHT22;58320;48.804;9.252;2023-04-01T07:39:02;9.80;71.80
70734;DHT22;58320;48.804;9.252;2023-04-01T07:41:42;9.80;71.40
70734;DHT22;58320;48.804;9.252;2023-04-01T08:02:58;10.00;70.80
70734;DHT22;58320;48.804;9.252;2023-04-01T08:06:14;10.10;70.50
70734;DHT22;58320;48.804;9.252;2023-04-01T08:09:43;10.10;69.90
70734;DHT22;58320;48.804;9.252;2023-04-01T08:14:39;10.10;70.00
70734;DHT22;58320;48.804;9.252;2023-04-01T08:17:40;10.20;69.90
70734;DHT22;58320;48.804;9.252;2023-04-01T08:20:50;10.30;70.00
70734;DHT22;58320;48.804;9.252;2023-04-01T08:23:48;10.30;69.30
70734;DHT22;58320;48.804;9.252;2023-04-01T08:29:00;10.40;69.10
70734;DHT22;58320;48.804;9.252;2023-04-01T08:34:30;10.60;69.50
70734;DHT22;58320;48.804;9.252;2023-04-01T08:37:21;10.60;69.60
70734;DHT22;58320;48.804;9.252;2023-04-01T08:40:13;10.40;69.60
70734;DHT22;58320;48.804;9.252;2023-04-01T08:43:05;10.30;70.80
70734;DHT22;58320;48.804;9.252;2023-04-01T08:46:16;10.20;73.70
70734;DHT22;58320;48.804;9.252;2023-04-01T08:52:06;9.60;77.40
70734;DHT22;58320;48.804;9.252;2023-04-01T09:12:15;8.20;93.80
70734;DHT22;58320;48.804;9.252;2023-04-01T09:20:46;8.40;92.20
70734;DHT22;58320;48.804;9.252;2023-04-01T09:23:47;8.60;92.80
70734;DHT22;58320;48.804;9.252;2023-04-01T09:29:52;8.80;87.50
70734;DHT22;58320;48.804;9.252;2023-04-01T09:35:20;9.40;81.00
70734;DHT22;58320;48.804;9.252;2023-04-01T09:49:35;10.10;76.70
70734;DHT22;58320;48.804;9.252;2023-04-01T09:58:46;9.60;75.70
70734;DHT22;58320;48.804;9.252;2023-04-01T10:16:02;10.00;72.40
70734;DHT22;58320;48.804;9.252;2023-04-01T10:36:28;10.70;67.80
70734;DHT22;58320;48.804;9.252;2023-04-01T10:51:10;10.10;71.50
70734;DHT22;58320;48.804;9.252;2023-04-01T10:54:40;10.10;71.80
70734;DHT22;58320;48.804;9.252;2023-04-01T11:00:28;10.50;69.70
70734;DHT22;58320;48.804;9.252;2023-04-01T11:03:19;10.50;70.10
70734;DHT22;58320;48.804;9.252;2023-04-01T11:06:21;10.60;71.10
70734;DHT22;58320;48.804;9.252;2023-04-01T11:12:35;10.50;70.20
70734;DHT22;58320;48.804;9.252;2023-04-01T11:15:53;10.50;70.30
70734;DHT22;58320;48.804;9.252;2023-04-01T11:27:28;11.00;65.40
70734;DHT22;58320;48.804;9.252;2023-04-01T11:30:14;11.20;64.70
70734;DHT22;58320;48.804;9.252;2023-04-01T11:33:04;11.30;64.80
70734;DHT22;58320;48.804;9.252;2023-04-01T11:44:39;12.10;62.30
70734;DHT22;58320;48.804;9.252;2023-04-01T11:50:59;12.30;62.00
70734;DHT22;58320;48.804;9.252;2023-04-01T12:06:48;11.50;63.90
70734;DHT22;58320;48.804;9.252;2023-04-01T12:14:19;11.10;66.80
70734;DHT22;58320;48.804;9.252;2023-04-01T12:19:53;10.90;67.20
70734;DHT22;58320;48.804;9.252;2023-04-01T12:37:41;10.70;71.70
70734;DHT22;58320;48.804;9.252;2023-04-01T12:49:16;11.20;68.30
70734;DHT22;58320;48.804;9.252;2023-04-01T12:55:06;11.40;67.40
70734;DHT22;58320;48.804;9.252;2023-04-01T13:07:22;11.90;63.40
70734;DHT22;58320;48.804;9.252;2023-04-01T13:10:02;11.90;63.10
70734;DHT22;58320;48.804;9.252;2023-04-01T13:12:58;11.90;63.00
70734;DHT22;58320;48.804;9.252;2023-04-01T13:25:24;11.50;65.00
70734;DHT22;58320;48.804;9.252;2023-04-01T13:28:18;11.40;64.30
70734;DHT22;58320;48.804;9.252;2023-04-01T13:44:53;12.00;61.70
70734;DHT22;58320;48.804;9.252;2023-04-01T13:50:19;11.70;62.50
70734;DHT22;58320;48.804;9.252;2023-04-01T14:17:35;11.60;63.60
70734;DHT22;58320;48.804;9.252;2023-04-01T14:32:35;11.40;63.60
70734;DHT22;58320;48.804;9.252;2023-04-01T14:35:35;11.40;64.80
70734;DHT22;58320;48.804;9.252;2023-04-01T14:49:46;10.40;70.80
70734;DHT22;58320;48.804;9.252;2023-04-01T14:52:28;10.40;70.40
70734;DHT22;58320;48.804;9.252;2023-04-01T14:54:57;10.40;70.10
70734;DHT22;58320;48.804;9.252;2023-04-01T14:57:31;10.50;69.20
70734;DHT22;58320;48.804;9.252;2023-04-01T15:00:17;10.60;68.30
70734;DHT22;58320;48.804;9.252;2023-04-01T15:12:10;11.20;65.60
70734;DHT22;58320;48.804;9.252;2023-04-01T15:33:11;11.20;64.90
70734;DHT22;58320;48.804;9.252;2023-04-01T15:36:12;11.20;65.20
70734;DHT22;58320;48.804;9.252;2023-04-01T15:38:58;11.20;65.00
70734;DHT22;58320;48.804;9.252;2023-04-01T15:44:57;11.30;65.30
70734;DHT22;58320;48.804;9.252;2023-04-01T15:53:30;11.30;66.00
70734;DHT22;58320;48.804;9.252;2023-04-01T16:07:56;11.00;66.30
70734;DHT22;58320;48.804;9.252;2023-04-01T16:22:14;11.00;66.60
70734;DHT22;58320;48.804;9.252;2023-04-01T16:28:31;11.00;65.70
70734;DHT22;58320;48.804;9.252;2023-04-01T16:34:42;10.90;65.30
70734;DHT22;58320;48.804;9.252;2023-04-01T16:37:21;10.90;65.20
70734;DHT22;58320;48.804;9.252;2023-04-01T16:43:05;10.80;65.40
70734;DHT22;58320;48.804;9.252;2023-04-01T16:46:08;10.80;65.10
70734;DHT22;58320;48.804;9.252;2023-04-01T16:52:34;10.80;65.50
70734;DHT22;58320;48.804;9.252;2023-04-01T16:54:56;10.80;65.70
70734;DHT22;58320;48.804;9.252;2023-04-01T16:57:43;10.80;66.40
70734;DHT22;58320;48.804;9.252;2023-04-01T17:11:51;10.70;67.10
70734;DHT22;58320;48.804;9.252;2023-04-01T17:17:52;10.70;67.50
70734;DHT22;58320;48.804;9.252;2023-04-01T17:20:42;10.70;67.80
70734;DHT22;58320;48.804;9.252;2023-04-01T17:23:33;10.70;67.90
70734;DHT22;58320;48.804;9.252;2023-04-01T17:34:51;10.60;68.70
70734;DHT22;58320;48.804;9.252;2023-04-01T17:40:06;10.60;68.40
70734;DHT22;58320;48.804;9.252;2023-04-01T17:45:27;10.60;68.90
70734;DHT22;58320;48.804;9.252;2023-04-01T17:54:15;10.60;68.70
70734;DHT22;58320;48.804;9.252;2023-04-01T18:00:14;10.60;68.60
70734;DHT22;58320;48.804;9.252;2023-04-01T18:11:41;10.10;73.30
70734;DHT22;58320;48.804;9.252;2023-04-01T18:25:41;8.90;90.10
70734;DHT22;58320;48.804;9.252;2023-04-01T18:36:44;8.50;97.30
70734;DHT22;58320;48.804;9.252;2023-04-01T18:47:23;8.60;95.40
70734;DHT22;58320;48.804;9.252;2023-04-01T18:50:06;8.60;94.60
70734;DHT22;58320;48.804;9.252;2023-04-01T18:52:42;8.60;93.10
70734;DHT22;58320;48.804;9.252;2023-04-01T18:55:29;8.70;86.50
70734;DHT22;58320;48.804;9.252;2023-04-01T18:58:23;8.90;83.70
70734;DHT22;58320;48.804;9.252;2023-04-01T19:01:11;8.80;83.10
70734;DHT22;58320;48.804;9.252;2023-04-01T19:06:50;8.70;80.40
70734;DHT22;58320;48.804;9.252;2023-04-01T19:12:05;8.60;79.40
70734;DHT22;58320;48.804;9.252;2023-04-01T19:20:22;8.40;79.20
70734;DHT22;58320;48.804;9.252;2023-04-01T19:25:59;8.40;79.30
70734;DHT22;58320;48.804;9.252;2023-04-01T19:28:38;8.40;79.40
70734;DHT22;58320;48.804;9.252;2023-04-01T19:34:48;8.30;79.00
70734;DHT22;58320;48.804;9.252;2023-04-01T19:37:40;8.30;79.20
70734;DHT22;58320;48.804;9.252;2023-04-01T19:43:03;8.30;79.50
70734;DHT22;58320;48.804;9.252;2023-04-01T20:03:05;8.10;80.60
70734;DHT22;58320;48.804;9.252;2023-04-01T20:14:30;8.30;79.60
70734;DHT22;58320;48.804;9.252;2023-04-01T20:17:20;8.50;79.10
70734;DHT22;58320;48.804;9.252;2023-04-01T20:20:02;8.50;78.80
70734;DHT22;58320;48.804;9.252;2023-04-01T20:25:48;8.70;77.70
70734;DHT22;58320;48.804;9.252;2023-04-01T20:40:25;8.80;77.20
70734;DHT22;58320;48.804;9.252;2023-04-01T20:52:25;9.00;76.00
70734;DHT22;58320;48.804;9.252;2023-04-01T21:09:38;9.00;76.40
70734;DHT22;58320;48.804;9.252;2023-04-01T21:12:22;9.00;76.40
70734;DHT22;58320;48.804;9.252;2023-04-01T21:15:22;9.00;76.70
70734;DHT22;58320;48.804;9.252;2023-04-01T21:30:14;8.90;77.10
70734;DHT22;58320;48.804;9.252;2023-04-01T21:32:31;8.90;76.90
70734;DHT22;58320;48.804;9.252;2023-04-01T21:36:07;8.90;77.10
70734;DHT22;58320;48.804;9.252;2023-04-01T21:44:51;8.90;77.20
70734;DHT22;58320;48.804;9.252;2023-04-01T22:06:21;8.70;78.30
70734;DHT22;58320;48.804;9.252;2023-04-01T22:09:11;8.70;78.40
70734;DHT22;58320;48.804;9.252;2023-04-01T22:11:55;8.70;78.00
70734;DHT22;58320;48.804;9.252;2023-04-01T22:14:51;8.70;77.60
70734;DHT22;58320;48.804;9.252;2023-04-01T22:20:37;8.70;77.60
70734;DHT22;58320;48.804;9.252;2023-04-01T22:23:20;8.70;76.90
70734;DHT22;58320;48.804;9.252;2023-04-01T22:26:00;8.70;77.10
70734;DHT22;58320;48.804;9.252;2023-04-01T22:31:46;8.60;77.10
70734;DHT22;58320;48.804;9.252;2023-04-01T22:34:27;8.60;76.90
70734;DHT22;58320;48.804;9.252;2023-04-01T22:40:45;8.70;75.90
70734;DHT22;58320;48.804;9.252;2023-04-01T22:43:36;8.70;75.70
70734;DHT22;58320;48.804;9.252;2023-04-01T22:46:26;8.80;75.50
70734;DHT22;58320;48.804;9.252;2023-04-01T22:55:08;8.80;75.20
70734;DHT22;58320;48.804;9.252;2023-04-01T22:57:55;8.80;75.10
70734;DHT22;58320;48.804;9.252;2023-04-01T23:00:47;8.80;75.10
70734;DHT22;58320;48.804;9.252;2023-04-01T23:03:21;8.80;74.90
70734;DHT22;58320;48.804;9.252;2023-04-01T23:06:21;8.80;75.10
70734;DHT22;58320;48.804;9.252;2023-04-01T23:09:02;8.80;75.30
70734;DHT22;58320;48.804;9.252;2023-04-01T23:11:58;8.80;75.00
70734;DHT22;58320;48.804;9.252;2023-04-01T23:14:39;8.80;74.90
70734;DHT22;58320;48.804;9.252;2023-04-01T23:20:29;8.80;75.10
70734;DHT22;58320;48.804;9.252;2023-04-01T23:23:29;8.80;75.20
70734;DHT22;58320;48.804;9.252;2023-04-01T23:26:25;8.80;74.90
70734;DHT22;58320;48.804;9.252;2023-04-01T23:28:58;8.80;75.20
70734;DHT22;58320;48.804;9.252;2023-04-01T23:31:32;8.70;75.20
70734;DHT22;58320;48.804;9.252;2023-04-01T23:36:49;8.70;75.00
70734;DHT22;58320;48.804;9.252;2023-04-01T23:39:35;8.70;75.30
70734;DHT22;58320;48.804;9.252;2023-04-01T23:42:23;8.70;75.10
70734;DHT22;58320;48.804;9.252;2023-04-01T23:45:03;8.70;75.30
70734;DHT22;58320;48.804;9.252;2023-04-01T23:47:31;8.70;75.50
70734;DHT22;58320;48.804;9.252;2023-04-01T23:50:01;8.70;75.60
70734;DHT22;58320;48.804;9.252;2023-04-01T23:52:36;8.70;75.80
70734;DHT22;58320;48.804;9.252;2023-04-01T23:55:17;8.70;76.20
